Time;durP1;ratioP1;P1;durP2;ratioP2;P2;SDS_P1;SDS_P2;PMS_P1;PMS_P2;Temp;Humidity;BMP_temperature;BMP_pressure;BME280_temperature;BME280_humidity;BME280_pressure;Samples;Min_cycle;Max_cycle;Signal;HPM_P1;HPM_P2
2022/10/02 00:00:12;;;;;;;2.75;1.17;;;20.70;98.10;;;;;;5030113;28;20502;-76
2022/10/02 00:03:00;;;;;;;3.40;1.33;;;20.70;98.30;;;;;;5046302;28;20045;-74
2022/10/02 00:05:53;;;;;;;5.25;2.25;;;20.60;98.40;;;;;;5013432;28;20044;-75
2022/10/02 00:08:32;;;;;;;3.00;1.10;;;20.60;98.50;;;;;;5001207;28;20158;-75
2022/10/02 00:11:12;;;;;;;4.38;1.60;;;20.60;98.60;;;;;;5029636;28;20045;-74
2022/10/02 00:13:48;;;;;;;3.88;1.35;;;20.60;98.60;;;;;;5044435;28;20045;-75
2022/10/02 00:16:40;;;;;;;2.00;1.20;;;20.60;98.50;;;;;;4996966;28;20056;-78
2022/10/02 00:19:15;;;;;;;1.48;1.00;;;20.50;98.60;;;;;;5012823;28;20051;-73
2022/10/02 00:22:03;;;;;;;;;;;20.50;98.70;;;;;;5039828;28;20045;-74
2022/10/02 00:24:58;;;;;;;2.95;1.05;;;20.50;98.70;;;;;;5029915;28;19928;-71
2022/10/02 00:27:44;;;;;;;2.30;1.10;;;20.50;98.80;;;;;;5044751;28;20063;-71
2022/10/02 00:30:16;;;;;;;3.10;1.52;;;20.50;99.20;;;;;;5047292;28;20630;-72
2022/10/02 00:32:52;;;;;;;2.50;1.42;;;20.40;99.00;;;;;;5029643;28;20187;-71
2022/10/02 00:35:28;;;;;;;7.32;2.25;;;20.40;99.00;;;;;;5029285;28;20544;-71
2022/10/02 00:38:22;;;;;;;2.78;1.27;;;20.40;99.00;;;;;;5013199;28;20495;-73
2022/10/02 00:41:08;;;;;;;4.38;2.05;;;20.40;99.10;;;;;;5010007;28;20139;-72
2022/10/02 00:44:12;;;;;;;3.20;1.15;;;20.40;99.20;;;;;;5051242;28;20048;-71
2022/10/02 00:46:55;;;;;;;5.32;2.05;;;20.40;99.20;;;;;;5045654;28;20045;-74
2022/10/02 00:50:04;;;;;;;3.70;1.30;;;20.40;99.30;;;;;;5028475;28;20128;-74
2022/10/02 00:52:53;;;;;;;3.42;2.05;;;20.40;99.20;;;;;;5032567;28;20044;-71
2022/10/02 00:55:49;;;;;;;10.77;2.33;;;20.30;99.40;;;;;;5013149;28;20041;-71
2022/10/02 00:58:37;;;;;;;5.28;1.40;;;20.30;99.60;;;;;;5045689;28;20057;-73
2022/10/02 01:01:11;;;;;;;2.90;1.13;;;20.20;99.60;;;;;;5015999;28;20061;-74
2022/10/02 01:03:43;;;;;;;3.67;1.73;;;20.20;99.80;;;;;;5044300;28;20040;-77
2022/10/02 01:06:11;;;;;;;3.47;1.30;;;20.20;99.90;;;;;;5046316;28;20061;-72
2022/10/02 01:08:39;;;;;;;4.80;1.33;;;20.20;99.90;;;;;;5046846;28;20046;-72
2022/10/02 01:11:08;;;;;;;2.00;1.10;;;20.10;99.90;;;;;;5031978;28;20106;-71
2022/10/02 01:13:37;;;;;;;3.30;1.35;;;20.10;99.90;;;;;;5033319;28;20102;-72
2022/10/02 01:16:11;;;;;;;3.67;1.40;;;20.10;99.90;;;;;;5018403;28;20057;-72
2022/10/02 01:18:41;;;;;;;3.15;1.55;;;20.10;99.90;;;;;;5030163;28;20052;-74
2022/10/02 01:21:34;;;;;;;4.10;1.70;;;20.00;99.90;;;;;;5049356;28;20060;-72
2022/10/02 01:24:04;;;;;;;2.90;1.65;;;20.00;99.90;;;;;;5049344;28;20048;-72
2022/10/02 01:26:32;;;;;;;2.38;1.20;;;20.00;99.90;;;;;;5033599;28;20051;-74
2022/10/02 01:29:00;;;;;;;4.18;1.50;;;20.00;99.90;;;;;;5067342;28;20056;-71
2022/10/02 01:31:29;;;;;;;3.70;1.25;;;20.00;99.90;;;;;;5049767;28;20086;-72
2022/10/02 01:33:57;;;;;;;3.42;1.50;;;20.00;99.90;;;;;;5049352;28;20040;-74
2022/10/02 01:36:25;;;;;;;2.58;1.52;;;20.00;99.90;;;;;;5029839;28;20099;-73
2022/10/02 01:38:55;;;;;;;3.28;1.33;;;20.00;99.90;;;;;;5017251;28;20053;-74
2022/10/02 01:41:24;;;;;;;11.32;2.25;;;20.00;99.90;;;;;;5033002;28;20165;-72
2022/10/02 01:43:56;;;;;;;4.65;1.40;;;19.90;99.90;;;;;;5027464;28;20624;-76
2022/10/02 01:46:32;;;;;;;4.93;1.10;;;19.90;99.90;;;;;;5058985;28;20044;-73
2022/10/02 01:49:24;;;;;;;3.20;1.23;;;19.90;99.90;;;;;;5046204;28;20056;-71
2022/10/02 01:52:08;;;;;;;5.38;1.65;;;19.90;99.90;;;;;;5021879;28;20110;-71
2022/10/02 01:55:11;;;;;;;10.85;2.28;;;19.90;99.90;;;;;;5047471;28;20051;-71
2022/10/02 01:57:58;;;;;;;3.00;1.30;;;19.90;99.90;;;;;;5048430;28;20083;-71
2022/10/02 02:00:40;;;;;;;4.25;1.65;;;19.90;99.90;;;;;;5024777;28;20083;-73
2022/10/02 02:03:52;;;;;;;3.70;1.33;;;19.90;99.90;;;;;;5023303;28;20051;-73
2022/10/02 02:06:24;;;;;;;5.75;1.88;;;20.00;99.90;;;;;;5030004;28;20407;-72
2022/10/02 02:09:02;;;;;;;2.70;1.73;;;20.00;99.90;;;;;;5017436;28;20351;-72
2022/10/02 02:11:31;;;;;;;5.82;1.20;;;19.90;99.90;;;;;;5029812;28;20495;-72
2022/10/02 02:14:16;;;;;;;3.17;1.55;;;20.00;99.90;;;;;;5029769;28;20083;-73
2022/10/02 02:17:12;;;;;;;3.80;1.50;;;19.90;99.90;;;;;;5030034;28;20231;-74
2022/10/02 02:20:07;;;;;;;5.80;2.03;;;19.90;99.90;;;;;;5027707;28;20056;-72
2022/10/02 02:22:42;;;;;;;4.18;1.63;;;19.90;99.90;;;;;;5045310;28;20048;-74
2022/10/02 02:25:15;;;;;;;4.60;2.00;;;19.90;99.90;;;;;;5029027;28;20497;-72
2022/10/02 02:27:54;;;;;;;5.53;1.63;;;19.90;99.90;;;;;;5013253;28;20052;-71
2022/10/02 02:30:25;;;;;;;4.00;1.10;;;19.80;99.90;;;;;;5029750;28;20041;-73
2022/10/02 02:33:00;;;;;;;2.58;1.50;;;19.80;99.90;;;;;;5028923;28;20095;-72
2022/10/02 02:35:38;;;;;;;5.60;1.55;;;19.80;99.90;;;;;;5029961;28;20463;-73
2022/10/02 02:38:12;;;;;;;5.03;1.42;;;19.80;99.90;;;;;;5013791;28;20137;-71
2022/10/02 02:40:44;;;;;;;2.13;1.30;;;19.80;99.90;;;;;;5030736;28;20127;-72
2022/10/02 02:43:31;;;;;;;2.78;1.83;;;19.80;99.90;;;;;;5012722;28;20064;-73
2022/10/02 02:46:07;;;;;;;3.15;1.80;;;19.80;99.90;;;;;;5046851;28;20041;-71
2022/10/02 02:48:50;;;;;;;3.83;1.27;;;19.80;99.90;;;;;;5030252;28;20138;-72
2022/10/02 02:51:26;;;;;;;10.88;2.35;;;19.80;99.90;;;;;;5030254;28;20471;-72
2022/10/02 02:54:18;;;;;;;3.45;2.03;;;19.70;99.90;;;;;;5029926;28;20079;-72
2022/10/02 02:56:47;;;;;;;3.75;1.85;;;19.70;99.90;;;;;;5046000;28;20041;-72
2022/10/02 02:59:17;;;;;;;6.47;2.30;;;19.60;99.90;;;;;;5046024;28;20457;-72
2022/10/02 03:01:46;;;;;;;3.65;1.33;;;19.60;99.90;;;;;;5028485;28;20032;-72
2022/10/02 03:04:15;;;;;;;3.25;1.38;;;19.50;99.90;;;;;;5029422;28;20045;-71
2022/10/02 03:06:51;;;;;;;3.67;1.30;;;19.40;99.90;;;;;;5030693;28;20568;-73
2022/10/02 03:09:22;;;;;;;4.72;1.20;;;19.40;99.90;;;;;;5013007;28;20053;-72
2022/10/02 03:12:25;;;;;;;5.57;1.45;;;19.30;99.90;;;;;;5013495;28;20143;-71
2022/10/02 03:15:10;;;;;;;3.35;1.20;;;19.30;99.90;;;;;;5046055;28;20084;-73
2022/10/02 03:17:48;;;;;;;3.38;1.42;;;19.30;99.90;;;;;;5016654;28;20468;-73
2022/10/02 03:20:40;;;;;;;4.07;1.70;;;19.20;99.90;;;;;;4999661;28;20049;-72
2022/10/02 03:23:30;;;;;;;2.83;1.50;;;19.20;99.90;;;;;;5027956;28;20114;-73
2022/10/02 03:26:03;;;;;;;2.08;1.13;;;19.20;99.90;;;;;;5032710;28;20053;-71
2022/10/02 03:28:34;;;;;;;3.28;1.17;;;19.10;99.90;;;;;;5016419;28;20121;-72
2022/10/02 03:31:23;;;;;;;2.25;1.23;;;19.20;99.90;;;;;;5033263;28;20130;-71
2022/10/02 03:33:52;;;;;;;5.55;1.48;;;19.10;99.90;;;;;;5051177;28;20045;-71
2022/10/02 03:36:23;;;;;;;2.03;1.20;;;19.20;99.90;;;;;;5032146;28;20174;-71
2022/10/02 03:38:59;;;;;;;3.45;1.30;;;19.10;99.90;;;;;;5032690;28;20059;-72
2022/10/02 03:41:47;;;;;;;5.25;1.48;;;19.10;99.90;;;;;;5050383;28;20044;-72
2022/10/02 03:44:14;;;;;;;2.95;1.48;;;19.10;99.90;;;;;;5016637;28;20387;-71
2022/10/02 03:46:42;;;;;;;3.40;1.38;;;19.10;99.90;;;;;;5016254;28;20053;-72
2022/10/02 03:49:10;;;;;;;2.35;1.17;;;19.10;99.90;;;;;;5050330;28;20041;-72
2022/10/02 03:51:37;;;;;;;3.25;1.15;;;19.10;99.90;;;;;;5032661;28;20513;-71
2022/10/02 03:54:16;;;;;;;2.28;1.25;;;19.10;99.90;;;;;;5050318;28;20134;-73
2022/10/02 03:56:44;;;;;;;3.97;1.70;;;19.10;99.90;;;;;;5020022;28;20036;-71
2022/10/02 03:59:36;;;;;;;3.95;1.42;;;19.00;99.90;;;;;;5035867;28;20409;-72
2022/10/02 04:02:11;;;;;;;3.20;1.30;;;19.10;99.90;;;;;;5038329;28;20147;-71
2022/10/02 04:04:48;;;;;;;1.77;1.00;;;19.00;99.90;;;;;;5052736;28;20044;-71
2022/10/02 04:07:32;;;;;;;4.57;1.83;;;19.00;99.90;;;;;;5070292;28;20141;-73
2022/10/02 04:10:15;;;;;;;5.22;1.60;;;19.00;99.90;;;;;;5070266;28;20127;-71
2022/10/02 04:12:48;;;;;;;2.72;1.20;;;19.10;99.90;;;;;;5051879;28;20060;-71
2022/10/02 04:15:34;;;;;;;2.33;1.20;;;19.00;99.90;;;;;;5015933;28;20121;-73
2022/10/02 04:18:08;;;;;;;2.17;1.35;;;19.00;99.90;;;;;;5050089;28;20491;-72
2022/10/02 04:20:46;;;;;;;1.98;1.40;;;19.00;99.90;;;;;;5015742;28;20057;-73
2022/10/02 04:23:22;;;;;;;3.60;1.20;;;19.00;99.90;;;;;;5049850;28;20483;-72
2022/10/02 04:25:59;;;;;;;1.92;1.30;;;19.00;99.90;;;;;;5049282;28;20048;-71
2022/10/02 04:28:36;;;;;;;8.55;1.70;;;19.00;99.90;;;;;;5048168;28;20090;-73
2022/10/02 04:31:13;;;;;;;4.03;1.63;;;19.00;99.90;;;;;;5049310;28;20065;-73
2022/10/02 04:33:41;;;;;;;2.95;1.50;;;19.00;99.90;;;;;;5048552;28;20055;-72
2022/10/02 04:36:19;;;;;;;2.83;1.20;;;19.00;99.90;;;;;;5015832;28;20083;-75
2022/10/02 04:39:19;;;;;;;2.45;1.17;;;19.00;99.90;;;;;;5048067;28;20071;-72
2022/10/02 04:42:07;;;;;;;3.67;1.58;;;19.00;99.90;;;;;;5047898;28;20041;-71
2022/10/02 04:44:54;;;;;;;6.53;1.90;;;19.00;99.90;;;;;;5031879;28;20466;-74
2022/10/02 04:48:00;;;;;;;2.17;1.13;;;19.00;99.90;;;;;;5049389;28;20140;-73
2022/10/02 04:50:44;;;;;;;2.90;1.17;;;19.00;99.90;;;;;;5043128;28;20072;-73
2022/10/02 04:53:36;;;;;;;2.83;1.33;;;19.00;99.90;;;;;;5047930;28;20053;-72
2022/10/02 04:56:19;;;;;;;3.53;1.30;;;19.00;99.90;;;;;;5031469;28;20049;-72
2022/10/02 04:59:25;;;;;;;5.00;1.25;;;19.00;99.90;;;;;;5014851;28;20049;-72
2022/10/02 05:01:58;;;;;;;3.13;1.20;;;19.10;99.90;;;;;;4989473;28;20105;-71
2022/10/02 05:04:46;;;;;;;3.55;1.52;;;19.20;99.90;;;;;;4989694;28;20081;-72
2022/10/02 05:07:41;;;;;;;4.55;1.73;;;19.20;99.90;;;;;;5006837;28;20590;-72
2022/10/02 05:10:39;;;;;;;6.35;1.88;;;19.40;99.90;;;;;;5030176;28;20056;-72
2022/10/02 05:13:31;;;;;;;2.03;1.30;;;19.50;99.90;;;;;;5047472;28;20049;-73
2022/10/02 05:16:28;;;;;;;6.55;2.00;;;19.70;99.90;;;;;;5014865;28;20052;-71
2022/10/02 05:19:05;;;;;;;2.20;1.33;;;19.90;99.90;;;;;;5031183;28;20064;-72
2022/10/02 05:21:34;;;;;;;1.85;1.08;;;20.00;99.90;;;;;;5014704;28;20048;-72
2022/10/02 05:24:08;;;;;;;3.63;1.25;;;20.20;99.90;;;;;;5046973;28;20041;-71
2022/10/02 05:26:54;;;;;;;2.58;1.63;;;20.30;99.90;;;;;;5030143;28;20055;-71
2022/10/02 05:29:37;;;;;;;3.33;1.30;;;20.50;99.90;;;;;;5047178;28;20068;-72
2022/10/02 05:32:14;;;;;;;2.08;1.20;;;20.70;99.90;;;;;;5014292;28;20515;-72
2022/10/02 05:35:01;;;;;;;2.80;1.02;;;20.80;99.90;;;;;;5014325;28;20091;-72
2022/10/02 05:37:51;;;;;;;2.50;1.33;;;21.00;99.90;;;;;;5030469;28;20478;-72
2022/10/02 05:40:56;;;;;;;2.72;1.17;;;21.20;99.90;;;;;;5048664;28;20463;-72
2022/10/02 05:43:59;;;;;;;2.45;1.25;;;21.40;99.90;;;;;;4990109;28;20054;-72
2022/10/02 05:46:38;;;;;;;6.40;2.20;;;21.50;99.90;;;;;;5046568;28;20053;-72
2022/10/02 05:49:13;;;;;;;2.95;1.30;;;21.70;99.90;;;;;;5046971;28;20144;-72
2022/10/02 05:51:52;;;;;;;2.75;1.35;;;21.90;99.90;;;;;;5031258;28;20041;-72
2022/10/02 05:54:32;;;;;;;3.17;1.48;;;22.00;99.90;;;;;;5047517;28;20045;-71
2022/10/02 05:57:12;;;;;;;3.50;1.23;;;22.20;99.90;;;;;;5048198;28;20049;-72
2022/10/02 06:00:01;;;;;;;2.97;1.58;;;22.30;99.90;;;;;;5030933;28;20056;-72
2022/10/02 06:03:02;;;;;;;3.22;1.42;;;22.50;99.90;;;;;;5032278;28;20053;-73
2022/10/02 06:05:46;;;;;;;2.30;1.33;;;22.60;99.90;;;;;;5031253;28;20446;-73
2022/10/02 06:08:18;;;;;;;4.72;2.85;;;22.80;99.90;;;;;;5030969;28;20124;-72
2022/10/02 06:10:55;;;;;;;3.20;1.48;;;23.00;99.90;;;;;;5031369;28;20056;-72
2022/10/02 06:13:58;;;;;;;3.33;1.60;;;23.10;99.90;;;;;;5047320;28;20037;-73
2022/10/02 06:16:54;;;;;;;4.82;1.50;;;23.30;99.90;;;;;;5026021;28;20428;-74
2022/10/02 06:19:38;;;;;;;3.70;1.30;;;23.40;99.90;;;;;;5014800;28;20053;-72
2022/10/02 06:22:16;;;;;;;3.53;1.42;;;23.50;99.90;;;;;;5030951;28;20094;-72
2022/10/02 06:24:53;;;;;;;3.17;1.77;;;23.70;99.90;;;;;;5047149;28;20060;-72
2022/10/02 06:27:30;;;;;;;3.88;2.20;;;23.90;99.90;;;;;;5030660;28;20055;-72
2022/10/02 06:30:02;;;;;;;3.97;1.70;;;24.10;99.90;;;;;;5014736;28;20055;-71
2022/10/02 06:32:53;;;;;;;3.65;2.25;;;24.30;99.90;;;;;;5029666;28;20044;-71
2022/10/02 06:35:50;;;;;;;2.70;1.20;;;24.50;99.90;;;;;;4994973;28;20454;-72
2022/10/02 06:38:26;;;;;;;;;;;24.70;99.60;;;;;;5010941;28;20042;-72
2022/10/02 06:41:19;;;;;;;2.75;1.50;;;24.90;99.40;;;;;;5010299;28;19925;-71
2022/10/02 06:44:12;;;;;;;3.22;1.75;;;25.00;99.20;;;;;;5026890;28;20172;-75
2022/10/02 06:47:08;;;;;;;3.42;1.48;;;25.10;98.90;;;;;;5026862;28;20053;-72
2022/10/02 06:49:47;;;;;;;3.47;1.65;;;25.20;98.70;;;;;;5028173;28;20119;-72
2022/10/02 06:52:23;;;;;;;6.57;2.10;;;25.30;98.60;;;;;;5030909;28;20045;-74
2022/10/02 06:55:20;;;;;;;;;;;25.40;98.70;;;;;;5015282;28;20506;-72
2022/10/02 06:58:13;;;;;;;2.60;1.10;;;25.50;98.60;;;;;;5021873;28;19996;-74
2022/10/02 07:01:35;;;;;;;3.60;1.85;;;25.70;98.40;;;;;;5035343;28;20450;-72
2022/10/02 07:04:41;;;;;;;2.20;1.20;;;25.80;98.30;;;;;;5029924;28;20136;-71
2022/10/02 07:07:33;;;;;;;2.13;1.38;;;25.90;98.10;;;;;;5024889;28;20073;-72
2022/10/02 07:10:37;;;;;;;3.30;1.40;;;26.00;98.10;;;;;;5020624;28;20054;-76
2022/10/02 07:13:35;;;;;;;3.65;1.10;;;26.10;98.10;;;;;;5030923;28;20107;-72
2022/10/02 07:16:14;;;;;;;4.00;1.60;;;26.10;98.00;;;;;;5036522;28;20060;-74
2022/10/02 07:18:51;;;;;;;10.65;2.17;;;26.10;97.90;;;;;;5029308;28;20566;-72
2022/10/02 07:21:33;;;;;;;2.88;1.58;;;26.00;97.90;;;;;;5014815;28;20050;-72
2022/10/02 07:24:27;;;;;;;3.90;1.33;;;26.10;98.10;;;;;;5031494;28;20250;-72
2022/10/02 07:27:02;;;;;;;2.53;1.20;;;26.20;98.00;;;;;;5032110;28;20052;-73
2022/10/02 07:29:47;;;;;;;2.90;1.25;;;26.20;97.70;;;;;;5030071;28;20154;-73
2022/10/02 07:32:34;;;;;;;4.05;1.30;;;26.30;97.80;;;;;;5014829;28;20656;-73
2022/10/02 07:35:23;;;;;;;2.97;1.20;;;26.30;97.70;;;;;;5030753;28;20426;-71
2022/10/02 07:37:53;;;;;;;2.63;1.95;;;26.30;97.50;;;;;;5031825;28;20047;-72
2022/10/02 07:41:09;;;;;;;5.32;1.63;;;26.40;97.50;;;;;;5030501;28;20038;-71
2022/10/02 07:43:41;;;;;;;6.97;1.40;;;26.40;97.60;;;;;;5027846;28;20092;-73
2022/10/02 07:46:33;;;;;;;5.07;1.85;;;26.40;97.40;;;;;;5014160;28;20119;-74
2022/10/02 07:49:20;;;;;;;3.38;1.58;;;26.40;97.40;;;;;;5029987;28;20136;-71
2022/10/02 07:51:59;;;;;;;4.13;1.17;;;26.50;97.20;;;;;;5030677;28;20387;-72
2022/10/02 07:54:47;;;;;;;5.22;1.42;;;26.60;97.30;;;;;;5030414;28;20119;-72
2022/10/02 07:57:43;;;;;;;2.85;1.73;;;26.60;97.60;;;;;;5030404;28;20048;-72
2022/10/02 08:00:21;;;;;;;4.37;1.57;;;26.60;97.20;;;;;;5030543;28;20060;-72
2022/10/02 08:03:01;;;;;;;4.30;1.55;;;26.50;97.10;;;;;;5023918;28;20063;-79
2022/10/02 08:05:48;;;;;;;3.85;1.60;;;26.60;97.10;;;;;;5039872;28;20057;-72
2022/10/02 08:08:34;;;;;;;8.13;1.83;;;26.60;97.20;;;;;;5008733;28;20049;-73
2022/10/02 08:11:11;;;;;;;3.08;1.20;;;26.70;97.10;;;;;;5046790;28;20588;-75
2022/10/02 08:14:17;;;;;;;4.97;1.95;;;26.60;96.90;;;;;;5031316;28;20136;-74
2022/10/02 08:16:49;;;;;;;5.03;1.60;;;26.70;96.90;;;;;;5032125;28;20171;-77
2022/10/02 08:19:31;;;;;;;2.60;1.15;;;26.80;97.00;;;;;;5011196;28;20064;-73
2022/10/02 08:22:15;;;;;;;2.60;1.20;;;26.80;96.80;;;;;;4996326;28;20049;-72
2022/10/02 08:24:49;;;;;;;2.10;0.98;;;26.80;96.50;;;;;;5030033;28;20049;-72
2022/10/02 08:27:44;;;;;;;2.83;1.73;;;26.80;96.60;;;;;;5017435;28;20476;-73
2022/10/02 08:30:13;;;;;;;2.83;1.20;;;26.80;96.40;;;;;;5029296;28;20098;-72
2022/10/02 08:32:42;;;;;;;3.40;1.20;;;26.90;96.30;;;;;;5024158;28;20051;-71
2022/10/02 08:35:12;;;;;;;4.25;1.85;;;26.90;96.40;;;;;;5048543;28;20037;-74
2022/10/02 08:37:55;;;;;;;2.80;1.35;;;26.90;96.50;;;;;;5045280;28;20064;-71
2022/10/02 08:40:42;;;;;;;3.00;1.33;;;27.00;96.50;;;;;;5028596;28;20747;-73
2022/10/02 08:43:37;;;;;;;2.67;1.55;;;27.10;96.30;;;;;;5036861;28;20049;-73
2022/10/02 08:46:41;;;;;;;1.60;1.30;;;27.20;96.20;;;;;;5028189;28;20460;-72
2022/10/02 08:49:40;;;;;;;4.90;1.52;;;27.20;96.30;;;;;;5029431;28;20365;-71
2022/10/02 08:53:02;;;;;;;2.50;1.33;;;27.30;96.00;;;;;;5028338;28;20042;-73
2022/10/02 08:55:46;;;;;;;4.00;1.23;;;27.30;96.10;;;;;;5010728;28;20089;-71
2022/10/02 08:58:34;;;;;;;2.10;1.50;;;27.50;96.10;;;;;;5026338;28;20132;-72
2022/10/02 09:01:25;;;;;;;3.17;1.10;;;27.50;96.20;;;;;;5011247;28;20088;-75
2022/10/02 09:04:27;;;;;;;7.22;1.80;;;27.40;96.00;;;;;;5027544;28;20056;-75
2022/10/02 09:07:14;;;;;;;4.85;1.58;;;27.50;95.70;;;;;;4978518;28;20059;-74
2022/10/02 09:09:42;;;;;;;1.67;1.05;;;27.50;95.50;;;;;;5025880;28;20057;-72
2022/10/02 09:12:58;;;;;;;1.85;1.25;;;27.60;95.40;;;;;;5015904;28;20673;-72
2022/10/02 09:15:39;;;;;;;2.15;1.20;;;27.60;95.30;;;;;;5018730;28;20064;-73
2022/10/02 09:18:24;;;;;;;2.25;1.20;;;27.60;95.20;;;;;;5029523;28;20045;-73
2022/10/02 09:21:19;;;;;;;3.47;1.85;;;27.60;95.20;;;;;;5028629;28;20237;-74
2022/10/02 09:24:08;;;;;;;1.80;1.10;;;27.60;95.20;;;;;;4995346;28;20045;-74
2022/10/02 09:26:43;;;;;;;6.55;4.35;;;27.70;95.20;;;;;;5028150;28;20041;-72
2022/10/02 09:29:44;;;;;;;5.80;2.38;;;27.70;95.10;;;;;;5011988;28;20072;-73
2022/10/02 09:32:41;;;;;;;4.53;1.38;;;27.70;95.20;;;;;;5029914;28;20464;-74
2022/10/02 09:35:28;;;;;;;4.53;2.45;;;27.80;95.20;;;;;;5028092;28;20099;-74
2022/10/02 09:38:35;;;;;;;3.90;1.80;;;27.80;95.10;;;;;;4995709;28;20142;-73
2022/10/02 09:41:27;;;;;;;4.55;2.13;;;27.80;95.00;;;;;;5028222;28;20071;-74
2022/10/02 09:44:14;;;;;;;3.63;1.33;;;27.90;95.00;;;;;;5028323;28;20045;-72
2022/10/02 09:47:08;;;;;;;3.15;1.45;;;27.90;94.80;;;;;;5028712;28;20049;-72
2022/10/02 09:50:14;;;;;;;3.45;1.67;;;28.00;94.70;;;;;;5027718;28;20107;-72
2022/10/02 09:53:19;;;;;;;2.90;1.20;;;28.00;94.70;;;;;;5028460;28;20056;-72
2022/10/02 09:56:23;;;;;;;2.05;1.33;;;28.00;94.60;;;;;;5027916;28;20066;-72
2022/10/02 09:59:30;;;;;;;4.57;1.70;;;28.10;94.50;;;;;;5027888;28;20065;-72
2022/10/02 10:02:35;;;;;;;2.83;1.35;;;28.00;94.40;;;;;;5029145;28;20121;-74
2022/10/02 10:05:12;;;;;;;2.85;1.40;;;28.10;94.40;;;;;;5027707;28;20046;-74
2022/10/02 10:08:05;;;;;;;1.80;1.10;;;28.10;94.30;;;;;;5011624;28;20075;-75
2022/10/02 10:11:10;;;;;;;4.28;1.30;;;28.00;94.40;;;;;;5027292;28;20055;-76
2022/10/02 10:13:40;;;;;;;5.63;1.30;;;28.10;94.50;;;;;;5030193;28;20147;-72
2022/10/02 10:16:17;;;;;;;1.75;1.02;;;28.10;94.10;;;;;;5027333;28;20060;-73
2022/10/02 10:19:21;;;;;;;1.95;1.20;;;28.10;93.80;;;;;;5027532;28;20472;-73
2022/10/02 10:22:05;;;;;;;3.67;1.75;;;28.20;94.00;;;;;;5022867;28;20053;-74
2022/10/02 10:24:51;;;;;;;2.33;1.30;;;28.10;93.80;;;;;;5012014;28;20407;-71
2022/10/02 10:28:06;;;;;;;5.70;1.80;;;28.10;93.70;;;;;;5016555;28;20128;-74
2022/10/02 10:30:37;;;;;;;2.47;1.10;;;28.10;93.50;;;;;;4999589;28;20049;-73
2022/10/02 10:33:26;;;;;;;4.28;1.65;;;28.00;93.60;;;;;;5032184;28;20130;-72
2022/10/02 10:39:46;;;;;;;3.03;1.20;;;28.20;93.60;;;;;;5031074;28;20361;-72
2022/10/02 10:42:41;;;;;;;2.38;1.15;;;28.20;93.00;;;;;;5013980;28;20119;-72
2022/10/02 10:45:40;;;;;;;2.95;1.30;;;28.20;92.70;;;;;;5031659;28;20072;-73
2022/10/02 10:48:53;;;;;;;4.05;1.45;;;28.00;92.40;;;;;;5014471;28;20061;-72
2022/10/02 10:51:36;;;;;;;2.63;1.23;;;28.10;91.80;;;;;;5027539;28;20050;-73
2022/10/02 10:54:13;;;;;;;2.65;1.40;;;28.00;91.80;;;;;;5031836;28;20431;-75
2022/10/02 10:56:44;;;;;;;1.88;1.23;;;28.00;92.00;;;;;;5030097;28;20404;-74
2022/10/02 10:59:35;;;;;;;4.20;1.65;;;28.00;92.10;;;;;;5030337;28;20068;-75
2022/10/02 11:02:42;;;;;;;2.80;1.25;;;28.00;92.20;;;;;;5032031;28;20556;-74
2022/10/02 11:05:45;;;;;;;3.75;1.77;;;28.00;92.30;;;;;;5013236;28;20057;-74
2022/10/02 11:08:53;;;;;;;10.73;2.03;;;27.90;93.40;;;;;;5030893;28;20068;-72
2022/10/02 11:11:23;;;;;;;4.68;1.90;;;27.70;93.80;;;;;;5014695;28;20042;-74
2022/10/02 11:14:21;;;;;;;3.10;1.65;;;27.70;94.00;;;;;;4998058;28;20064;-74
2022/10/02 11:17:30;;;;;;;2.13;1.23;;;27.60;93.90;;;;;;5013254;28;20460;-73
2022/10/02 11:20:31;;;;;;;5.03;1.58;;;27.50;94.30;;;;;;4972910;28;20077;-72
2022/10/02 11:23:18;;;;;;;2.88;1.25;;;27.50;94.50;;;;;;4972693;28;20084;-72
2022/10/02 11:26:04;;;;;;;4.28;1.48;;;27.50;94.70;;;;;;5010844;28;20057;-75
2022/10/02 11:28:33;;;;;;;3.75;1.90;;;27.60;94.90;;;;;;5013110;28;20057;-75
2022/10/02 11:31:16;;;;;;;2.25;1.48;;;27.20;94.70;;;;;;5030923;28;20050;-72
2022/10/02 11:34:15;;;;;;;3.38;1.30;;;27.20;94.90;;;;;;5031737;28;20065;-73
2022/10/02 11:37:02;;;;;;;4.50;2.42;;;27.20;95.00;;;;;;5011860;28;20413;-72
2022/10/02 11:39:40;;;;;;;5.05;1.42;;;27.00;95.20;;;;;;4996814;28;20144;-73
2022/10/02 11:42:27;;;;;;;6.78;1.50;;;27.00;95.50;;;;;;5029656;28;20794;-72
2022/10/02 11:45:13;;;;;;;5.45;1.60;;;26.80;96.00;;;;;;5029310;28;20042;-72
2022/10/02 11:48:13;;;;;;;3.97;1.85;;;26.80;95.90;;;;;;5029592;28;20428;-71
2022/10/02 11:51:16;;;;;;;4.30;1.83;;;26.80;96.10;;;;;;4996104;28;20060;-72
2022/10/02 11:54:14;;;;;;;4.30;1.85;;;26.80;96.30;;;;;;5029173;28;20587;-75
2022/10/02 11:57:13;;;;;;;2.55;1.60;;;26.80;96.00;;;;;;5029025;28;20392;-76
2022/10/02 12:00:04;;;;;;;3.75;1.80;;;26.90;96.10;;;;;;5027200;28;20081;-73
2022/10/02 12:02:40;;;;;;;5.10;1.65;;;26.80;96.00;;;;;;5031376;28;20138;-76
2022/10/02 12:05:33;;;;;;;6.35;1.95;;;26.80;95.70;;;;;;5047921;28;20087;-73
2022/10/02 12:08:33;;;;;;;3.55;1.30;;;26.80;96.00;;;;;;5036141;28;20124;-71
2022/10/02 12:11:19;;;;;;;3.33;1.38;;;26.80;96.40;;;;;;5011844;28;20120;-72
2022/10/02 12:13:47;;;;;;;;;;;26.70;96.50;;;;;;5029982;28;20076;-72
2022/10/02 12:16:47;;;;;;;5.55;1.50;;;26.60;96.70;;;;;;5031806;28;19937;-74
2022/10/02 12:26:57;;;;;;;2.28;1.30;;;26.60;96.70;;;;;;5045955;28;20049;-72
2022/10/02 12:29:18;;;;;;;3.72;1.15;;;26.40;96.10;;;;;;5043417;28;20230;-73
2022/10/02 12:32:11;;;;;;;3.25;1.55;;;26.50;96.20;;;;;;5016534;28;20061;-72
2022/10/02 12:34:56;;;;;;;3.30;1.40;;;26.40;96.70;;;;;;5020659;28;20060;-73
2022/10/02 12:37:37;;;;;;;2.47;1.70;;;26.30;96.30;;;;;;5029571;28;20148;-72
2022/10/02 12:40:34;;;;;;;6.25;1.50;;;26.30;96.00;;;;;;5026672;28;20041;-71
2022/10/02 12:43:19;;;;;;;;;;;26.30;96.00;;;;;;5025089;28;20056;-72
2022/10/02 12:46:35;;;;;;;2.50;1.20;;;26.20;96.20;;;;;;5048695;28;19920;-71
2022/10/02 12:49:15;;;;;;;3.00;1.85;;;26.20;95.90;;;;;;5040548;28;20049;-72
2022/10/02 12:51:58;;;;;;;2.45;1.45;;;26.10;95.60;;;;;;5048552;28;20197;-72
2022/10/02 12:54:47;;;;;;;2.78;1.20;;;26.00;95.30;;;;;;5040562;28;20041;-72
2022/10/02 12:57:51;;;;;;;3.28;0.93;;;25.90;95.40;;;;;;5046351;28;20116;-72
2022/10/02 13:00:25;;;;;;;3.40;1.50;;;25.70;95.30;;;;;;5028614;28;20368;-73
2022/10/02 13:03:29;;;;;;;2.45;1.48;;;25.70;95.70;;;;;;5025740;28;20100;-72
2022/10/02 13:06:23;;;;;;;3.90;1.35;;;25.60;95.50;;;;;;5035544;28;20037;-72
2022/10/02 13:09:28;;;;;;;2.53;1.25;;;25.60;95.40;;;;;;5043570;28;20049;-72
2022/10/02 13:11:59;;;;;;;3.55;1.27;;;25.50;95.90;;;;;;5024161;28;20061;-72
2022/10/02 13:14:39;;;;;;;3.17;1.38;;;25.40;96.20;;;;;;5031225;28;20045;-73
2022/10/02 13:17:28;;;;;;;3.92;1.58;;;25.30;96.20;;;;;;5046082;28;20100;-75
2022/10/02 13:20:38;;;;;;;6.72;2.25;;;25.40;96.40;;;;;;5029763;28;20045;-72
2022/10/02 13:23:24;;;;;;;1.70;1.10;;;25.40;95.70;;;;;;5031114;28;20103;-71
2022/10/02 13:26:28;;;;;;;2.47;1.20;;;25.40;95.70;;;;;;5027630;28;20365;-74
2022/10/02 13:29:21;;;;;;;2.22;1.10;;;25.40;96.40;;;;;;5045803;28;20045;-72
2022/10/02 13:32:04;;;;;;;3.63;1.65;;;25.40;97.00;;;;;;5036270;28;20655;-73
2022/10/02 13:34:54;;;;;;;7.93;2.03;;;25.20;96.90;;;;;;5027736;28;20070;-72
2022/10/02 13:37:22;;;;;;;2.88;1.20;;;25.20;97.10;;;;;;5028263;28;20029;-72
2022/10/02 13:40:14;;;;;;;4.78;1.60;;;25.10;96.70;;;;;;5030322;28;20715;-72
2022/10/02 13:43:08;;;;;;;1.65;1.00;;;25.00;97.10;;;;;;5012107;28;20064;-75
2022/10/02 13:45:49;;;;;;;1.85;1.10;;;25.00;97.10;;;;;;5031219;28;20125;-71
2022/10/02 13:48:36;;;;;;;3.13;1.30;;;25.10;96.50;;;;;;5042469;28;20052;-72
2022/10/02 13:51:07;;;;;;;3.50;1.42;;;25.10;96.60;;;;;;5043087;28;20045;-71
2022/10/02 13:53:48;;;;;;;2.85;1.48;;;25.00;96.60;;;;;;5041373;28;20057;-72
2022/10/02 13:56:31;;;;;;;4.47;1.10;;;25.00;97.00;;;;;;4995784;28;20048;-72
2022/10/02 13:59:17;;;;;;;8.60;1.38;;;25.00;97.50;;;;;;5026538;28;20511;-71
2022/10/02 14:02:05;;;;;;;3.75;1.67;;;25.00;96.50;;;;;;5046781;28;20095;-72
2022/10/02 14:05:13;;;;;;;8.90;1.27;;;25.00;95.90;;;;;;5036802;28;20037;-71
2022/10/02 14:08:04;;;;;;;3.50;1.20;;;24.80;96.00;;;;;;5013034;28;20064;-71
2022/10/02 14:10:36;;;;;;;2.70;1.63;;;24.80;96.20;;;;;;5044413;28;20152;-72
2022/10/02 14:13:17;;;;;;;1.48;1.00;;;24.80;96.40;;;;;;5027245;28;20048;-71
2022/10/02 14:16:01;;;;;;;3.20;1.20;;;24.90;96.40;;;;;;5025817;28;20053;-74
2022/10/02 14:18:47;;;;;;;3.63;1.20;;;24.90;96.30;;;;;;5039507;28;20057;-77
2022/10/02 14:21:30;;;;;;;;;;;24.90;96.20;;;;;;5030835;28;20792;-72
2022/10/02 14:24:17;;;;;;;4.78;1.48;;;24.90;96.30;;;;;;5011697;28;20255;-72
2022/10/02 14:27:11;;;;;;;2.83;1.15;;;24.90;96.20;;;;;;5017948;28;20049;-72
2022/10/02 14:30:08;;;;;;;1.80;1.17;;;25.00;96.60;;;;;;5046172;28;20053;-71
2022/10/02 14:33:00;;;;;;;2.10;1.10;;;25.00;96.70;;;;;;5022879;28;20062;-71